createdAt,value
2024-04-16T00:00:44.637Z,3.10
2024-04-16T00:03:17.046Z,3.53
2024-04-16T00:05:44.117Z,3.23
2024-04-16T00:08:13.827Z,3.33
2024-04-16T00:10:41.281Z,3.20
2024-04-16T00:13:11.094Z,3.67
2024-04-16T00:15:38.222Z,3.87
2024-04-16T00:18:08.530Z,3.40
2024-04-16T00:20:38.347Z,3.50
2024-04-16T00:23:08.084Z,3.60
2024-04-16T00:25:35.215Z,3.00
2024-04-16T00:28:04.977Z,3.53
2024-04-16T00:30:32.047Z,4.03
2024-04-16T00:33:01.794Z,3.53
2024-04-16T00:35:28.933Z,3.57
2024-04-16T00:38:01.325Z,3.60
2024-04-16T00:40:28.561Z,3.23
2024-04-16T00:42:58.340Z,3.47
2024-04-16T00:45:27.202Z,3.37
2024-04-16T00:47:57.358Z,2.97
2024-04-16T00:50:24.546Z,3.57
2024-04-16T00:52:54.255Z,3.53
2024-04-16T00:55:24.022Z,2.93
2024-04-16T00:57:53.990Z,3.03
2024-04-16T01:00:22.660Z,2.40
2024-04-16T01:02:52.381Z,2.80
2024-04-16T01:05:19.507Z,3.00
2024-04-16T01:07:49.263Z,3.53
2024-04-16T01:10:17.358Z,2.70
2024-04-16T01:12:49.753Z,2.77
2024-04-16T01:15:17.033Z,2.43
2024-04-16T01:17:47.681Z,2.53
2024-04-16T01:20:14.776Z,2.67
2024-04-16T01:22:50.590Z,2.67
2024-04-16T01:25:17.645Z,2.73
2024-04-16T01:27:47.405Z,2.87
2024-04-16T01:30:14.526Z,3.50
2024-04-16T01:32:44.264Z,3.13
2024-04-16T01:35:12.246Z,2.87
2024-04-16T01:37:42.013Z,2.70
2024-04-16T01:40:12.448Z,2.57
2024-04-16T01:42:43.246Z,2.30
2024-04-16T01:45:10.430Z,2.53
2024-04-16T01:47:40.118Z,2.83
2024-04-16T01:50:07.607Z,2.20
2024-04-16T01:52:37.256Z,2.20
2024-04-16T01:55:04.941Z,2.67
2024-04-16T01:57:37.540Z,2.87
2024-04-16T02:00:05.208Z,2.60
2024-04-16T02:02:35.202Z,2.57
2024-04-16T02:05:02.475Z,2.27
2024-04-16T02:07:32.294Z,2.43
2024-04-16T02:09:59.521Z,2.83
2024-04-16T02:12:29.335Z,2.80
2024-04-16T02:14:58.964Z,2.53
2024-04-16T02:17:28.854Z,2.53
2024-04-16T02:19:56.189Z,2.53
2024-04-16T02:22:25.956Z,2.67
2024-04-16T02:24:52.952Z,2.70
2024-04-16T02:27:22.582Z,2.60
2024-04-16T02:29:49.604Z,2.23
2024-04-16T02:32:21.975Z,2.20
2024-04-16T02:34:50.003Z,2.50
2024-04-16T02:37:19.724Z,2.10
2024-04-16T02:39:46.817Z,3.17
2024-04-16T02:42:16.451Z,2.13
2024-04-16T02:44:43.494Z,2.33
2024-04-16T02:47:13.208Z,2.40
2024-04-16T02:49:42.963Z,2.37
2024-04-16T02:52:12.661Z,2.23
2024-04-16T02:54:39.879Z,2.20
2024-04-16T02:57:09.553Z,1.83
2024-04-16T02:59:36.615Z,2.60
2024-04-16T03:02:06.821Z,1.60
2024-04-16T03:04:34.048Z,1.53
2024-04-16T03:07:06.530Z,2.27
2024-04-16T03:09:33.673Z,2.30
2024-04-16T03:12:03.348Z,2.07
2024-04-16T03:14:30.434Z,2.17
2024-04-16T03:17:00.209Z,2.20
2024-04-16T03:19:27.304Z,1.70
2024-04-16T03:21:57.031Z,2.00
2024-04-16T03:24:26.674Z,1.73
2024-04-16T03:26:56.523Z,1.93
2024-04-16T03:29:23.570Z,1.97
2024-04-16T03:31:53.286Z,2.10
2024-04-16T03:34:20.472Z,1.53
2024-04-16T03:36:50.231Z,1.93
2024-04-16T03:39:19.839Z,1.50
2024-04-16T03:41:52.161Z,2.30
2024-04-16T03:44:19.203Z,2.17
2024-04-16T03:46:48.868Z,1.80
2024-04-16T03:49:15.947Z,1.90
2024-04-16T03:51:45.700Z,1.60
2024-04-16T03:54:12.764Z,1.77
2024-04-16T03:56:42.720Z,2.13
2024-04-16T03:59:17.510Z,2.10
2024-04-16T04:01:48.024Z,2.17
2024-04-16T04:04:15.341Z,2.00
2024-04-16T04:06:45.118Z,2.57
2024-04-16T04:09:12.166Z,1.80
2024-04-16T04:11:42.098Z,2.33
2024-04-16T04:14:11.758Z,2.27
2024-04-16T04:16:41.449Z,2.10
2024-04-16T04:19:08.670Z,2.47
2024-04-16T04:21:38.914Z,2.30
2024-04-16T04:24:15.667Z,1.97
2024-04-16T04:26:52.608Z,2.80
2024-04-16T04:29:22.251Z,2.27
2024-04-16T04:31:51.988Z,2.30
2024-04-16T04:34:19.054Z,2.60
2024-04-16T04:36:48.723Z,2.20
2024-04-16T04:39:15.767Z,2.53
2024-04-16T04:41:45.860Z,2.53
2024-04-16T04:44:12.970Z,2.30
2024-04-16T04:46:45.387Z,2.40
2024-04-16T04:49:12.473Z,3.07
2024-04-16T04:51:42.168Z,2.70
2024-04-16T04:54:09.572Z,2.50
2024-04-16T04:56:39.160Z,2.57
2024-04-16T04:59:06.283Z,2.60
2024-04-16T05:01:36.111Z,2.47
2024-04-16T05:04:05.954Z,2.83
2024-04-16T05:06:38.569Z,3.00
2024-04-16T05:09:06.146Z,2.50
2024-04-16T05:11:36.016Z,2.90
2024-04-16T05:14:03.098Z,3.37
2024-04-16T05:16:32.777Z,2.60
2024-04-16T05:18:59.851Z,2.80
2024-04-16T05:21:32.235Z,2.37
2024-04-16T05:23:59.267Z,2.20
2024-04-16T05:26:28.919Z,2.53
2024-04-16T05:28:56.019Z,2.37
2024-04-16T05:31:25.685Z,2.13
2024-04-16T05:33:53.830Z,2.10
2024-04-16T05:36:25.060Z,2.73
2024-04-16T05:38:54.689Z,2.57
2024-04-16T05:41:24.388Z,2.70
2024-04-16T05:43:53.030Z,2.70
2024-04-16T05:46:22.716Z,2.60
2024-04-16T05:48:49.730Z,2.90
2024-04-16T05:51:19.347Z,2.40
2024-04-16T05:53:46.439Z,2.73
2024-04-16T05:56:18.705Z,2.87
2024-04-16T05:58:45.791Z,2.60
2024-04-16T06:01:17.222Z,2.60
2024-04-16T06:03:44.428Z,2.57
2024-04-16T06:06:14.115Z,3.00
2024-04-16T06:08:41.205Z,3.10
2024-04-16T06:11:10.890Z,3.03
2024-04-16T06:13:41.971Z,2.80
2024-04-16T06:16:13.150Z,2.40
2024-04-16T06:18:41.551Z,2.63
2024-04-16T06:21:11.490Z,4.20
2024-04-16T06:23:38.589Z,2.67
2024-04-16T06:26:11.983Z,2.50
2024-04-16T06:28:41.704Z,3.10
2024-04-16T06:31:12.681Z,3.00
2024-04-16T06:33:41.328Z,3.20
2024-04-16T06:36:11.807Z,2.47
2024-04-16T06:38:39.039Z,2.70
2024-04-16T06:41:08.754Z,2.93
2024-04-16T06:43:35.784Z,2.23
2024-04-16T06:46:08.146Z,2.10
2024-04-16T06:48:35.466Z,2.67
2024-04-16T06:51:05.368Z,2.77
2024-04-16T06:53:32.433Z,2.60
2024-04-16T06:56:03.739Z,2.60
2024-04-16T06:58:30.992Z,2.17
2024-04-16T07:01:01.499Z,2.53
2024-04-16T07:03:31.331Z,2.87
2024-04-16T07:06:01.091Z,2.30
2024-04-16T07:08:28.539Z,2.60
2024-04-16T07:10:58.189Z,2.53
2024-04-16T07:13:25.627Z,2.43
2024-04-16T07:15:55.671Z,2.30
2024-04-16T07:18:22.818Z,2.60
2024-04-16T07:20:55.257Z,2.17
2024-04-16T07:23:22.384Z,2.30
2024-04-16T07:25:52.224Z,2.57
2024-04-16T07:28:19.289Z,2.23
2024-04-16T07:30:57.581Z,2.03
2024-04-16T07:33:29.050Z,2.73
2024-04-16T07:36:01.435Z,2.43
2024-04-16T07:38:28.477Z,2.43
2024-04-16T07:40:58.328Z,1.70
2024-04-16T07:43:25.702Z,2.30
2024-04-16T07:45:55.494Z,1.90
2024-04-16T07:48:22.702Z,2.60
2024-04-16T07:50:52.498Z,2.80
2024-04-16T07:53:22.285Z,2.77
2024-04-16T07:55:51.997Z,3.00
2024-04-16T07:58:19.131Z,2.50
2024-04-16T08:00:50.658Z,3.17
2024-04-16T08:03:17.945Z,3.00
2024-04-16T08:05:47.780Z,2.70
2024-04-16T08:08:19.192Z,2.77
2024-04-16T08:10:55.304Z,3.23
2024-04-16T08:13:24.093Z,3.20
2024-04-16T08:15:53.843Z,2.17
2024-04-16T08:18:21.937Z,2.93
2024-04-16T08:20:51.800Z,2.53
2024-04-16T08:23:20.395Z,3.53
2024-04-16T08:25:50.167Z,2.13
2024-04-16T08:28:19.985Z,2.30
2024-04-16T08:30:56.281Z,2.50
2024-04-16T08:33:29.718Z,2.37
2024-04-16T08:39:07.514Z,1.83
2024-04-16T08:41:36.890Z,2.77
2024-04-16T08:44:11.095Z,2.20
2024-04-16T08:46:39.453Z,2.20
2024-04-16T08:49:10.899Z,1.90
2024-04-16T08:51:39.599Z,2.37
2024-04-16T08:54:11.855Z,2.23
2024-04-16T08:56:39.364Z,2.10
2024-04-16T08:59:11.548Z,2.47
2024-04-16T09:01:39.355Z,1.83
2024-04-16T09:04:10.113Z,1.77
2024-04-16T09:06:37.936Z,2.00
2024-04-16T09:09:10.613Z,2.10
2024-04-16T09:11:38.383Z,1.70
2024-04-16T09:14:11.010Z,2.27
2024-04-16T09:16:38.693Z,1.77
2024-04-16T09:19:12.582Z,1.60
2024-04-16T09:21:40.068Z,1.60
2024-04-16T09:24:12.324Z,2.23
2024-04-16T09:26:39.511Z,1.87
2024-04-16T09:29:11.872Z,1.83
2024-04-16T09:31:39.046Z,1.57
2024-04-16T09:34:10.577Z,2.10
2024-04-16T09:36:48.081Z,1.70
2024-04-16T09:39:21.223Z,1.60
2024-04-16T09:41:49.449Z,1.80
2024-04-16T09:44:23.174Z,1.30
2024-04-16T09:46:54.499Z,2.10
2024-04-16T09:49:33.279Z,1.57
2024-04-16T09:52:05.833Z,1.60
2024-04-16T09:54:36.899Z,1.67
2024-04-16T09:57:06.495Z,1.37
2024-04-16T09:59:41.159Z,1.33
2024-04-16T10:02:11.015Z,1.40
2024-04-16T10:04:40.919Z,1.80
2024-04-16T10:07:08.793Z,1.70
2024-04-16T10:09:38.866Z,1.40
2024-04-16T10:12:07.015Z,1.90
2024-04-16T10:14:40.698Z,1.27
2024-04-16T10:17:13.466Z,1.43
2024-04-16T10:19:46.482Z,1.23
2024-04-16T10:22:14.351Z,1.57
2024-04-16T10:24:54.860Z,1.13
2024-04-16T10:27:26.315Z,1.17
2024-04-16T10:30:14.669Z,1.53
2024-04-16T10:32:45.152Z,1.20
2024-04-16T10:35:15.916Z,1.30
2024-04-16T10:37:47.451Z,1.10
2024-04-16T10:40:26.511Z,1.30
2024-04-16T10:42:55.134Z,1.00
2024-04-16T10:45:29.936Z,1.20
2024-04-16T10:47:58.801Z,1.30
2024-04-16T10:50:28.583Z,1.30
2024-04-16T10:52:57.009Z,1.10
2024-04-16T10:55:27.091Z,1.10
2024-04-16T10:57:54.495Z,1.37
2024-04-16T11:00:28.050Z,0.70
2024-04-16T11:02:55.418Z,1.27
2024-04-16T11:05:25.475Z,1.00
2024-04-16T11:07:52.606Z,0.90
2024-04-16T11:10:22.744Z,0.70
2024-04-16T11:12:51.733Z,1.00
2024-04-16T11:15:22.054Z,1.10
2024-04-16T11:17:51.860Z,0.90
2024-04-16T11:20:21.938Z,1.13
2024-04-16T11:22:49.270Z,1.10
2024-04-16T11:25:19.451Z,1.00
2024-04-16T11:27:46.545Z,1.00
2024-04-16T11:30:18.187Z,0.87
2024-04-16T11:32:46.479Z,0.77
2024-04-16T11:35:19.401Z,0.80
2024-04-16T11:37:47.244Z,1.00
2024-04-16T11:40:17.289Z,1.20
2024-04-16T11:42:46.355Z,1.03
2024-04-16T11:45:16.312Z,1.33
2024-04-16T11:47:43.534Z,0.77
2024-04-16T11:50:14.514Z,0.80
2024-04-16T11:52:44.492Z,0.70
2024-04-16T11:55:14.307Z,1.10
2024-04-16T11:57:41.431Z,0.87
2024-04-16T12:00:12.056Z,0.70
2024-04-16T12:02:39.128Z,0.80
2024-04-16T12:05:09.047Z,0.77
2024-04-16T12:07:36.154Z,0.77
2024-04-16T12:10:09.644Z,0.97
2024-04-16T12:12:36.738Z,1.17
2024-04-16T12:15:06.958Z,1.00
2024-04-16T12:17:34.064Z,1.03
2024-04-16T12:20:03.876Z,1.57
2024-04-16T12:22:31.116Z,1.00
2024-04-16T12:25:01.064Z,1.30
2024-04-16T12:27:32.487Z,1.10
2024-04-16T12:30:03.230Z,1.40
2024-04-16T12:32:30.525Z,1.07
2024-04-16T12:35:00.622Z,1.07
2024-04-16T12:37:27.791Z,1.33
2024-04-16T12:39:57.463Z,1.23
2024-04-16T12:42:24.525Z,1.27
2024-04-16T12:44:57.163Z,1.20
2024-04-16T12:47:24.510Z,1.13
2024-04-16T12:49:54.258Z,0.90
2024-04-16T12:52:21.592Z,1.00
2024-04-16T12:54:51.283Z,0.87
2024-04-16T12:57:18.385Z,1.10
2024-04-16T12:59:48.092Z,1.00
2024-04-16T13:02:17.879Z,0.73
2024-04-16T13:04:50.128Z,1.10
2024-04-16T13:07:18.197Z,0.90
2024-04-16T13:09:48.681Z,0.90
2024-04-16T13:12:15.845Z,0.57
2024-04-16T13:14:45.548Z,0.70
2024-04-16T13:17:12.665Z,1.00
2024-04-16T13:19:44.961Z,1.00
2024-04-16T13:22:12.611Z,0.80
2024-04-16T13:24:42.264Z,0.70
2024-04-16T13:27:09.383Z,0.93
2024-04-16T13:29:38.956Z,0.90
2024-04-16T13:32:06.812Z,0.90
2024-04-16T13:34:36.537Z,1.07
2024-04-16T13:37:06.342Z,1.00
2024-04-16T13:39:36.031Z,0.90
2024-04-16T13:42:03.329Z,0.97
2024-04-16T13:44:33.376Z,0.80
2024-04-16T13:47:00.957Z,0.70
2024-04-16T13:49:30.637Z,0.90
2024-04-16T13:51:57.702Z,0.93
2024-04-16T13:54:29.928Z,1.07
2024-04-16T13:57:00.400Z,1.07
2024-04-16T13:59:30.253Z,0.80
2024-04-16T14:01:59.271Z,1.00
2024-04-16T14:04:29.166Z,1.00
2024-04-16T14:06:57.424Z,1.30
2024-04-16T14:09:29.701Z,1.10
2024-04-16T14:11:56.790Z,1.23
2024-04-16T14:14:26.590Z,1.10
2024-04-16T14:16:53.916Z,1.00
2024-04-16T14:19:23.791Z,1.10
2024-04-16T14:21:52.537Z,1.20
2024-04-16T14:24:26.106Z,0.80
2024-04-16T14:26:55.818Z,1.20
2024-04-16T14:29:28.172Z,0.80
2024-04-16T14:31:55.336Z,1.27
2024-04-16T14:34:25.716Z,1.30
2024-04-16T14:36:54.473Z,0.93
2024-04-16T14:39:24.284Z,1.40
2024-04-16T14:41:52.190Z,1.33
2024-04-16T14:44:24.555Z,1.23
2024-04-16T14:46:53.531Z,1.27
2024-04-16T14:49:24.227Z,1.27
2024-04-16T14:51:51.816Z,1.50
2024-04-16T14:54:21.575Z,1.30
2024-04-16T14:56:49.688Z,1.27
2024-04-16T14:59:19.555Z,1.37
2024-04-16T15:01:49.311Z,1.37
2024-04-16T15:04:19.093Z,1.20
2024-04-16T15:06:46.610Z,1.40
2024-04-16T15:09:19.101Z,1.07
2024-04-16T15:11:47.381Z,1.43
2024-04-16T15:14:17.119Z,1.10
2024-04-16T15:16:44.244Z,1.30
2024-04-16T15:19:16.579Z,1.00
2024-04-16T15:21:43.613Z,1.30
2024-04-16T15:24:13.273Z,1.70
2024-04-16T15:26:40.263Z,1.37
2024-04-16T15:29:09.917Z,1.40
2024-04-16T15:31:37.057Z,1.13
2024-04-16T15:34:06.628Z,1.63
2024-04-16T15:36:36.341Z,1.27
2024-04-16T15:39:05.996Z,1.03
2024-04-16T15:41:34.157Z,1.60
2024-04-16T15:44:04.370Z,1.30
2024-04-16T15:46:31.463Z,1.60
2024-04-16T15:49:01.183Z,1.50
2024-04-16T15:51:28.312Z,1.43
2024-04-16T15:54:00.650Z,1.87
2024-04-16T15:56:27.702Z,1.30
2024-04-16T15:58:57.453Z,1.80
2024-04-16T16:01:24.570Z,2.20
2024-04-16T16:03:54.459Z,1.90
2024-04-16T16:06:21.544Z,2.10
2024-04-16T16:08:51.396Z,1.67
2024-04-16T16:11:23.827Z,1.93
2024-04-16T16:13:51.069Z,2.00
2024-04-16T16:16:20.816Z,1.83
2024-04-16T16:18:47.962Z,1.57
2024-04-16T16:21:17.727Z,2.00
2024-04-16T16:23:44.794Z,2.20
2024-04-16T16:26:17.819Z,1.83
2024-04-16T16:28:47.821Z,1.70
2024-04-16T16:31:19.606Z,2.10
2024-04-16T16:33:47.444Z,1.80
2024-04-16T16:36:17.752Z,1.50
2024-04-16T16:38:44.914Z,1.70
2024-04-16T16:41:14.520Z,1.37
2024-04-16T16:43:41.776Z,1.40
2024-04-16T16:46:14.303Z,1.63
2024-04-16T16:48:41.456Z,1.77
2024-04-16T16:51:11.315Z,1.40
2024-04-16T16:53:38.321Z,1.27
2024-04-16T16:56:08.665Z,1.10
2024-04-16T16:58:35.748Z,1.17
2024-04-16T17:01:05.473Z,1.10
2024-04-16T17:03:35.296Z,0.90
2024-04-16T17:06:05.126Z,1.20
2024-04-16T17:08:32.206Z,1.20
2024-04-16T17:11:02.039Z,1.27
2024-04-16T17:13:29.929Z,1.07
2024-04-16T17:15:59.749Z,1.30
2024-04-16T17:18:26.886Z,1.50
2024-04-16T17:21:02.603Z,1.33
2024-04-16T17:23:29.777Z,1.40
2024-04-16T17:25:59.517Z,1.37
2024-04-16T17:28:26.709Z,1.60
2024-04-16T17:30:56.472Z,1.77
2024-04-16T17:33:23.812Z,1.33
2024-04-16T17:35:53.667Z,1.50
2024-04-16T17:38:23.459Z,1.37
2024-04-16T17:40:54.191Z,1.57
2024-04-16T17:43:21.484Z,1.30
2024-04-16T17:45:51.393Z,1.30
2024-04-16T17:48:18.612Z,1.40
2024-04-16T17:50:48.379Z,1.53
2024-04-16T17:53:18.457Z,1.40
2024-04-16T17:55:50.768Z,1.30
2024-04-16T17:58:18.769Z,1.23
2024-04-16T18:00:48.650Z,1.23
2024-04-16T18:03:15.770Z,3.37
2024-04-16T18:05:45.478Z,3.03
2024-04-16T18:08:12.675Z,1.57
2024-04-16T18:10:42.397Z,1.30
2024-04-16T18:13:12.234Z,1.43
2024-04-16T18:15:41.890Z,1.30
2024-04-16T18:18:09.072Z,1.50
2024-04-16T18:20:42.149Z,1.70
2024-04-16T18:23:11.786Z,1.40
2024-04-16T18:25:41.938Z,1.63
2024-04-16T18:28:11.652Z,1.80
2024-04-16T18:30:41.477Z,1.70
2024-04-16T18:33:08.841Z,1.73
2024-04-16T18:35:38.562Z,1.40
2024-04-16T18:38:05.745Z,1.67
2024-04-16T18:40:38.718Z,1.40
2024-04-16T18:43:06.150Z,2.30
2024-04-16T18:45:44.611Z,1.27
2024-04-16T18:48:12.254Z,1.00
2024-04-16T18:50:42.200Z,0.90
2024-04-16T18:53:09.276Z,1.60
2024-04-16T18:55:39.073Z,1.10
2024-04-16T18:58:06.492Z,1.10
2024-04-16T19:00:39.280Z,0.73
2024-04-16T19:03:06.704Z,1.07
2024-04-16T19:05:36.653Z,1.00
2024-04-16T19:08:05.310Z,0.67
2024-04-16T19:10:37.392Z,0.43
2024-04-16T19:13:05.435Z,0.40
2024-04-16T19:15:38.277Z,0.90
2024-04-16T19:18:06.414Z,0.70
2024-04-16T19:20:37.022Z,0.60
2024-04-16T19:23:04.328Z,0.50
2024-04-16T19:25:34.213Z,0.60
2024-04-16T19:28:01.645Z,0.50
2024-04-16T19:30:31.368Z,0.60
2024-04-16T19:33:01.289Z,0.60
2024-04-16T19:35:31.059Z,0.63
2024-04-16T19:37:58.222Z,0.80
2024-04-16T19:40:28.173Z,0.67
2024-04-16T19:42:55.330Z,0.80
2024-04-16T19:45:25.179Z,0.70
2024-04-16T19:47:53.355Z,0.70
2024-04-16T19:50:25.715Z,1.00
2024-04-16T19:52:52.887Z,0.70
2024-04-16T19:55:22.763Z,0.90
2024-04-16T19:57:49.976Z,1.00
2024-04-16T20:00:19.987Z,0.80
2024-04-16T20:02:49.999Z,0.63
2024-04-16T20:05:20.751Z,0.70
2024-04-16T20:07:50.688Z,1.00
2024-04-16T20:10:20.541Z,0.80
2024-04-16T20:12:49.222Z,1.30
2024-04-16T20:15:19.207Z,0.90
2024-04-16T20:17:46.474Z,0.77
2024-04-16T20:20:16.314Z,0.80
2024-04-16T20:22:43.470Z,0.87
2024-04-16T20:25:18.934Z,0.80
2024-04-16T20:27:46.405Z,0.83
2024-04-16T20:30:16.178Z,1.20
2024-04-16T20:32:43.433Z,1.47
2024-04-16T20:35:13.230Z,1.97
2024-04-16T20:37:40.389Z,2.10
2024-04-16T20:40:11.563Z,2.43
2024-04-16T20:42:41.296Z,1.70
2024-04-16T20:45:11.430Z,1.63
2024-04-16T20:47:38.601Z,1.00
2024-04-16T20:50:09.323Z,1.30
2024-04-16T20:52:36.463Z,1.50
2024-04-16T20:55:06.264Z,1.20
2024-04-16T20:57:33.408Z,1.20
2024-04-16T21:00:05.788Z,1.53
2024-04-16T21:02:32.867Z,1.20
2024-04-16T21:05:02.530Z,1.10
2024-04-16T21:07:29.775Z,1.17
2024-04-16T21:09:59.613Z,1.30
2024-04-16T21:12:27.327Z,1.00
2024-04-16T21:14:57.119Z,1.03
2024-04-16T21:17:27.033Z,1.20
2024-04-16T21:19:56.779Z,1.23
2024-04-16T21:22:23.934Z,1.33
2024-04-16T21:24:53.606Z,1.50
2024-04-16T21:27:20.665Z,1.40
2024-04-16T21:29:50.325Z,1.30
2024-04-16T21:32:21.234Z,1.50
2024-04-16T21:34:55.610Z,1.50
2024-04-16T21:37:24.663Z,1.57
2024-04-16T21:39:54.510Z,1.60
2024-04-16T21:42:21.643Z,1.70
2024-04-16T21:44:51.591Z,2.13
2024-04-16T21:47:21.038Z,1.70
2024-04-16T21:49:53.503Z,2.33
2024-04-16T21:52:20.700Z,1.80
2024-04-16T21:54:50.821Z,1.67
2024-04-16T21:57:17.930Z,1.77
2024-04-16T21:59:47.652Z,1.50
2024-04-16T22:02:14.719Z,1.90
2024-04-16T22:04:44.416Z,1.77
2024-04-16T22:07:14.143Z,1.30
2024-04-16T22:09:43.842Z,1.27
2024-04-16T22:12:10.847Z,1.20
2024-04-16T22:14:40.534Z,1.93
2024-04-16T22:17:07.615Z,1.53
2024-04-16T22:19:37.350Z,1.40
2024-04-16T22:22:04.815Z,1.50
2024-04-16T22:24:37.145Z,1.47
2024-04-16T22:27:04.833Z,1.73
2024-04-16T22:29:34.479Z,2.00
2024-04-16T22:32:01.772Z,1.60
2024-04-16T22:34:31.531Z,1.73
2024-04-16T22:36:58.593Z,1.80
2024-04-16T22:39:28.330Z,1.60
2024-04-16T22:41:58.053Z,1.80
2024-04-16T22:44:27.822Z,1.43
2024-04-16T22:46:54.943Z,1.73
2024-04-16T22:49:24.702Z,1.70
2024-04-16T22:51:51.798Z,1.83
2024-04-16T22:54:21.515Z,1.23
2024-04-16T22:56:48.618Z,1.70
2024-04-16T22:59:20.938Z,1.57
2024-04-16T23:01:48.186Z,1.70
2024-04-16T23:04:18.260Z,1.70
2024-04-16T23:06:45.374Z,1.70
2024-04-16T23:09:15.052Z,1.67
2024-04-16T23:11:42.209Z,1.90
2024-04-16T23:14:11.950Z,1.97
2024-04-16T23:16:41.631Z,2.00
2024-04-16T23:19:11.285Z,1.90
2024-04-16T23:21:38.384Z,1.50
2024-04-16T23:24:08.915Z,1.63
2024-04-16T23:26:36.332Z,2.20
2024-04-16T23:29:06.076Z,1.60
2024-04-16T23:31:33.144Z,2.17
2024-04-16T23:34:05.637Z,1.50
2024-04-16T23:36:32.725Z,2.20
2024-04-16T23:39:02.538Z,2.27
2024-04-16T23:41:29.626Z,1.63
2024-04-16T23:43:59.380Z,2.00
2024-04-16T23:46:26.493Z,1.80
2024-04-16T23:48:56.147Z,2.00
2024-04-16T23:51:25.904Z,1.90
2024-04-16T23:53:55.578Z,1.70
2024-04-16T23:56:22.610Z,1.80
2024-04-16T23:58:52.378Z,2.10
